createdAt,value
2023-03-01T00:00:06.203Z,102030.09
2023-03-01T00:02:38.268Z,102031.47
2023-03-01T00:05:05.727Z,102022.09
2023-03-01T00:07:32.452Z,102029.81
2023-03-01T00:09:59.141Z,102020.94
2023-03-01T00:12:25.770Z,102024.25
2023-03-01T00:14:52.594Z,102019.00
2023-03-01T00:17:19.574Z,102019.53
2023-03-01T00:19:46.165Z,102011.47
2023-03-01T00:22:12.836Z,102008.41
2023-03-01T00:24:39.537Z,102010.91
2023-03-01T00:27:06.213Z,102006.72
2023-03-01T00:29:32.958Z,102009.22
2023-03-01T00:32:00.469Z,102011.38
2023-03-01T00:34:27.122Z,102009.75
2023-03-01T00:36:55.102Z,102023.53
2023-03-01T00:39:21.832Z,102024.63
2023-03-01T00:41:48.513Z,102027.38
2023-03-01T00:44:15.211Z,102018.25
2023-03-01T00:46:42.046Z,102029.53
2023-03-01T00:49:08.896Z,102019.28
2023-03-01T00:51:35.897Z,102023.16
2023-03-01T00:54:03.700Z,102017.06
2023-03-01T00:56:31.812Z,102028.91
2023-03-01T00:58:58.904Z,102020.63
2023-03-01T01:01:31.890Z,102014.81
2023-03-01T01:04:05.013Z,102015.59
2023-03-01T01:06:46.372Z,102015.59
2023-03-01T01:09:18.850Z,102013.94
2023-03-01T01:11:48.137Z,102020.53
2023-03-01T01:14:15.293Z,102014.97
2023-03-01T01:16:42.004Z,102009.44
2023-03-01T01:19:09.772Z,102008.84
2023-03-01T01:21:37.297Z,102007.75
2023-03-01T01:24:05.778Z,102004.16
2023-03-01T01:26:34.624Z,101995.84
2023-03-01T01:29:03.440Z,101996.91
2023-03-01T01:31:31.313Z,101990.25
2023-03-01T01:33:59.679Z,101993.28
2023-03-01T01:36:26.520Z,101981.09
2023-03-01T01:38:53.544Z,101979.47
2023-03-01T01:41:21.381Z,101980.81
2023-03-01T01:43:51.289Z,101980.50
2023-03-01T01:46:31.725Z,101966.13
2023-03-01T01:49:04.868Z,101967.81
2023-03-01T01:51:39.891Z,101964.47
2023-03-01T01:54:23.850Z,101956.72
2023-03-01T01:56:57.170Z,101953.97
2023-03-01T01:59:26.096Z,101947.31
2023-03-01T02:01:53.800Z,101955.88
2023-03-01T02:04:21.589Z,101944.00
2023-03-01T02:07:11.258Z,101938.16
2023-03-01T02:09:38.196Z,101940.59
2023-03-01T02:12:05.915Z,101943.38
2023-03-01T02:14:34.145Z,101933.13
2023-03-01T02:17:00.816Z,101934.81
2023-03-01T02:19:50.970Z,101929.22
2023-03-01T02:22:24.355Z,101935.59
2023-03-01T02:25:20.258Z,101924.00
2023-03-01T02:28:04.688Z,101924.78
2023-03-01T02:30:33.954Z,101930.56
2023-03-01T02:33:05.842Z,101922.28
2023-03-01T02:35:37.872Z,101914.53
2023-03-01T02:38:08.524Z,101920.31
2023-03-01T02:40:39.278Z,101917.28
2023-03-01T02:43:09.243Z,101913.97
2023-03-01T02:45:36.259Z,101907.28
2023-03-01T02:48:03.816Z,101904.78
2023-03-01T02:50:30.683Z,101906.44
2023-03-01T02:53:06.076Z,101914.97
2023-03-01T02:55:32.851Z,101906.91
2023-03-01T02:58:02.992Z,101913.84
2023-03-01T03:00:46.571Z,101913.03
2023-03-01T03:03:17.876Z,101914.34
2023-03-01T03:05:45.409Z,101914.31
2023-03-01T03:08:12.599Z,101911.03
2023-03-01T03:10:42.266Z,101903.03
2023-03-01T03:13:14.500Z,101915.44
2023-03-01T03:15:43.288Z,101918.44
2023-03-01T03:18:12.738Z,101928.03
2023-03-01T03:20:41.404Z,101919.97
2023-03-01T03:23:08.441Z,101920.28
2023-03-01T03:25:38.769Z,101923.56
2023-03-01T03:28:10.713Z,101919.97
2023-03-01T03:30:40.232Z,101926.84
2023-03-01T03:33:08.242Z,101924.38
2023-03-01T03:35:44.561Z,101928.75
2023-03-01T03:38:16.729Z,101922.69
2023-03-01T03:40:52.144Z,101920.19
2023-03-01T03:43:22.493Z,101911.88
2023-03-01T03:45:51.225Z,101917.38
2023-03-01T03:48:19.232Z,101912.97
2023-03-01T03:50:51.594Z,101904.72
2023-03-01T03:53:19.572Z,101901.38
2023-03-01T03:55:50.122Z,101903.56
2023-03-01T03:58:19.251Z,101895.56
2023-03-01T04:00:46.851Z,101893.06
2023-03-01T04:03:16.024Z,101900.25
2023-03-01T04:05:43.176Z,101884.22
2023-03-01T04:08:10.544Z,101889.16
2023-03-01T04:10:45.830Z,101890.25
2023-03-01T04:13:15.336Z,101884.19
2023-03-01T04:15:41.965Z,101883.59
2023-03-01T04:18:10.903Z,101887.44
2023-03-01T04:20:37.597Z,101884.94
2023-03-01T04:23:17.257Z,101878.59
2023-03-01T04:25:47.153Z,101870.59
2023-03-01T04:28:13.844Z,101875.28
2023-03-01T04:30:40.757Z,101879.09
2023-03-01T04:33:09.227Z,101867.53
2023-03-01T04:35:37.424Z,101866.69
2023-03-01T04:38:05.082Z,101858.13
2023-03-01T04:40:32.101Z,101855.13
2023-03-01T04:42:58.920Z,101853.72
2023-03-01T04:45:25.912Z,101845.47
2023-03-01T04:47:53.257Z,101845.97
2023-03-01T04:50:24.578Z,101840.72
2023-03-01T04:52:51.389Z,101846.22
2023-03-01T04:55:18.354Z,101844.31
2023-03-01T04:57:45.108Z,101844.81
2023-03-01T05:00:23.057Z,101845.41
2023-03-01T05:02:55.597Z,101846.16
2023-03-01T05:05:34.322Z,101836.81
2023-03-01T05:08:03.736Z,101847.25
2023-03-01T05:10:31.841Z,101841.19
2023-03-01T05:13:00.037Z,101834.84
2023-03-01T05:15:28.898Z,101841.44
2023-03-01T05:17:59.643Z,101835.66
2023-03-01T05:20:30.914Z,101839.22
2023-03-01T05:23:00.605Z,101844.72
2023-03-01T05:25:27.896Z,101839.22
2023-03-01T05:27:54.660Z,101837.53
2023-03-01T05:30:22.562Z,101845.22
2023-03-01T05:32:50.915Z,101841.91
2023-03-01T05:35:18.944Z,101842.72
2023-03-01T05:37:48.323Z,101844.91
2023-03-01T05:40:20.833Z,101845.59
2023-03-01T05:42:55.922Z,101844.19
2023-03-01T05:45:23.874Z,101851.56
2023-03-01T05:47:51.221Z,101845.75
2023-03-01T05:50:24.022Z,101850.69
2023-03-01T05:53:02.397Z,101841.00
2023-03-01T05:55:31.415Z,101840.09
2023-03-01T05:58:03.840Z,101837.94
2023-03-01T06:00:31.675Z,101834.91
2023-03-01T06:02:59.792Z,101842.84
2023-03-01T06:05:27.764Z,101842.28
2023-03-01T06:07:54.821Z,101838.47
2023-03-01T06:10:23.537Z,101837.84
2023-03-01T06:12:50.371Z,101834.31
2023-03-01T06:15:17.985Z,101838.41
2023-03-01T06:17:46.916Z,101831.75
2023-03-01T06:20:19.516Z,101832.81
2023-03-01T06:22:47.423Z,101842.22
2023-03-01T06:25:16.480Z,101835.56
2023-03-01T06:27:43.514Z,101832.50
2023-03-01T06:30:13.125Z,101834.44
2023-03-01T06:32:42.973Z,101832.19
2023-03-01T06:35:15.390Z,101827.53
2023-03-01T06:37:42.610Z,101828.84
2023-03-01T06:40:12.419Z,101829.94
2023-03-01T06:42:41.125Z,101825.53
2023-03-01T06:45:09.196Z,101826.59
2023-03-01T06:47:36.063Z,101842.88
2023-03-01T06:50:04.175Z,101842.03
2023-03-01T06:52:30.821Z,101844.72
2023-03-01T06:54:57.505Z,101840.91
2023-03-01T06:57:24.597Z,101840.28
2023-03-01T06:59:51.466Z,101835.91
2023-03-01T07:02:18.269Z,101843.56
2023-03-01T07:04:44.871Z,101832.56
2023-03-01T07:07:11.701Z,101837.75
2023-03-01T07:09:38.637Z,101832.25
2023-03-01T07:12:05.659Z,101834.75
2023-03-01T07:14:32.385Z,101838.06
2023-03-01T07:16:59.238Z,101843.25
2023-03-01T07:19:26.002Z,101839.41
2023-03-01T07:21:52.810Z,101844.56
2023-03-01T07:24:19.860Z,101834.06
2023-03-01T07:26:52.960Z,101830.25
2023-03-01T07:29:19.751Z,101837.44
2023-03-01T07:31:46.967Z,101838.78
2023-03-01T07:34:13.835Z,101840.13
2023-03-01T07:36:44.226Z,101837.09
2023-03-01T07:39:12.097Z,101829.13
2023-03-01T07:41:39.174Z,101840.69
2023-03-01T07:44:05.927Z,101840.13
2023-03-01T07:46:32.967Z,101835.75
2023-03-01T07:48:59.887Z,101834.78
2023-03-01T07:51:26.534Z,101834.44
2023-03-01T07:53:53.165Z,101830.06
2023-03-01T07:56:20.572Z,101831.16
2023-03-01T07:58:49.225Z,101830.16
2023-03-01T08:01:19.050Z,101834.09
2023-03-01T08:03:46.550Z,101836.41
2023-03-01T08:06:15.065Z,101835.44
2023-03-01T08:08:42.205Z,101833.84
2023-03-01T08:11:11.509Z,101835.06
2023-03-01T08:13:38.356Z,101826.38
2023-03-01T08:16:13.200Z,101824.00
2023-03-01T08:18:40.235Z,101828.28
2023-03-01T08:21:10.304Z,101811.00
2023-03-01T08:23:37.497Z,101813.56
2023-03-01T08:26:11.694Z,101806.72
2023-03-01T08:28:39.380Z,101806.50
2023-03-01T08:31:33.861Z,101805.44
2023-03-01T08:34:01.933Z,101807.13
2023-03-01T08:36:34.650Z,101797.47
2023-03-01T08:39:01.432Z,101796.97
2023-03-01T08:41:28.550Z,101804.97
2023-03-01T08:43:59.743Z,101802.25
2023-03-01T08:46:35.460Z,101787.97
2023-03-01T08:49:06.566Z,101791.28
2023-03-01T08:51:37.497Z,101776.94
2023-03-01T08:54:06.604Z,101777.56
2023-03-01T08:56:34.272Z,101773.97
2023-03-01T08:59:00.899Z,101781.09
2023-03-01T09:01:27.614Z,101783.31
2023-03-01T09:03:54.569Z,101787.47
2023-03-01T09:06:21.375Z,101778.72
2023-03-01T09:08:50.263Z,101779.81
2023-03-01T09:11:21.285Z,101783.41
2023-03-01T09:13:50.281Z,101782.84
2023-03-01T09:16:20.197Z,101787.03
2023-03-01T09:18:51.621Z,101786.47
2023-03-01T09:21:27.501Z,101783.72
2023-03-01T09:24:04.584Z,101779.88
2023-03-01T09:26:31.389Z,101779.34
2023-03-01T09:28:58.219Z,101780.50
2023-03-01T09:31:25.873Z,101777.72
2023-03-01T09:33:54.822Z,101782.16
2023-03-01T09:36:24.215Z,101779.94
2023-03-01T09:38:53.068Z,101773.34
2023-03-01T09:41:38.279Z,101775.81
2023-03-01T09:44:11.739Z,101771.66
2023-03-01T09:46:42.718Z,101769.50
2023-03-01T09:49:20.177Z,101764.53
2023-03-01T09:51:56.789Z,101773.38
2023-03-01T09:54:23.654Z,101772.84
2023-03-01T09:56:53.381Z,101772.53
2023-03-01T09:59:45.976Z,101766.19
2023-03-01T10:02:30.254Z,101770.06
2023-03-01T10:05:11.200Z,101759.81
2023-03-01T10:07:55.821Z,101750.16
2023-03-01T10:10:34.804Z,101749.06
2023-03-01T10:13:35.001Z,101742.69
2023-03-01T10:16:11.343Z,101744.09
2023-03-01T10:18:40.847Z,101737.47
2023-03-01T10:21:18.598Z,101737.47
2023-03-01T10:23:45.683Z,101734.16
2023-03-01T10:26:45.850Z,101728.91
2023-03-01T10:29:14.113Z,101716.19
2023-03-01T10:31:53.134Z,101714.25
2023-03-01T10:34:29.652Z,101716.75
2023-03-01T10:37:20.267Z,101709.03
2023-03-01T10:39:57.355Z,101716.47
2023-03-01T10:42:29.382Z,101711.78
2023-03-01T10:44:58.717Z,101711.25
2023-03-01T10:47:28.799Z,101701.56
2023-03-01T10:50:01.927Z,101707.09
2023-03-01T10:52:35.678Z,101705.97
2023-03-01T10:55:26.206Z,101702.66
2023-03-01T10:58:08.604Z,101686.63
2023-03-01T11:00:48.137Z,101696.06
2023-03-01T11:03:21.885Z,101696.06
2023-03-01T11:05:54.679Z,101680.53
2023-03-01T11:08:37.098Z,101685.53
2023-03-01T11:11:30.724Z,101688.31
2023-03-01T11:14:19.383Z,101685.81
2023-03-01T11:17:34.666Z,101683.91
2023-03-01T11:20:14.631Z,101680.56
2023-03-01T11:22:56.651Z,101680.84
2023-03-01T11:25:28.003Z,101691.06
2023-03-01T11:27:55.597Z,101680.53
2023-03-01T11:30:28.583Z,101673.63
2023-03-01T11:33:04.412Z,101673.91
2023-03-01T11:35:34.341Z,101664.50
2023-03-01T11:38:13.312Z,101653.72
2023-03-01T11:41:18.958Z,101660.56
2023-03-01T11:43:48.457Z,101660.81
2023-03-01T11:46:33.118Z,101661.84
2023-03-01T11:49:18.621Z,101656.06
2023-03-01T11:51:54.484Z,101654.97
2023-03-01T11:54:35.882Z,101662.22
2023-03-01T11:57:15.839Z,101661.34
2023-03-01T12:00:00.897Z,101657.47
2023-03-01T12:02:40.061Z,101659.69
2023-03-01T12:05:16.020Z,101657.75
2023-03-01T12:07:54.206Z,101645.56
2023-03-01T12:10:39.396Z,101644.47
2023-03-01T12:13:38.645Z,101648.28
2023-03-01T12:16:05.837Z,101643.31
2023-03-01T12:18:40.436Z,101644.97
2023-03-01T12:21:13.008Z,101639.44
2023-03-01T12:24:02.210Z,101634.19
2023-03-01T12:26:34.377Z,101620.63
2023-03-01T12:29:27.404Z,101616.19
2023-03-01T12:32:19.931Z,101604.81
2023-03-01T12:35:01.508Z,101586.03
2023-03-01T12:37:51.465Z,101579.13
2023-03-01T12:40:38.904Z,101584.34
2023-03-01T12:43:28.423Z,101584.88
2023-03-01T12:46:40.234Z,101574.66
2023-03-01T12:49:13.661Z,101566.63
2023-03-01T12:51:43.929Z,101563.00
2023-03-01T12:54:20.849Z,101556.66
2023-03-01T12:56:53.184Z,101562.44
2023-03-01T12:59:38.513Z,101561.34
2023-03-01T13:02:32.494Z,101560.78
2023-03-01T13:05:08.144Z,101560.22
2023-03-01T13:07:40.420Z,101553.53
2023-03-01T13:10:19.772Z,101552.69
2023-03-01T13:13:03.265Z,101554.38
2023-03-01T13:15:35.448Z,101556.28
2023-03-01T13:18:26.413Z,101548.25
2023-03-01T13:21:11.895Z,101557.38
2023-03-01T13:23:40.587Z,101547.38
2023-03-01T13:26:16.563Z,101539.06
2023-03-01T13:28:46.110Z,101524.28
2023-03-01T13:31:22.116Z,101526.69
2023-03-01T13:33:52.763Z,101523.34
2023-03-01T13:36:28.900Z,101519.78
2023-03-01T13:38:59.229Z,101519.25
2023-03-01T13:41:43.882Z,101520.38
2023-03-01T13:44:32.829Z,101521.72
2023-03-01T13:47:18.395Z,101515.59
2023-03-01T13:50:05.006Z,101517.28
2023-03-01T13:52:38.539Z,101515.56
2023-03-01T13:55:14.903Z,101512.25
2023-03-01T13:57:46.797Z,101512.81
2023-03-01T14:00:35.847Z,101516.97
2023-03-01T14:03:06.351Z,101511.66
2023-03-01T14:05:34.852Z,101516.38
2023-03-01T14:08:01.502Z,101515.50
2023-03-01T14:10:38.044Z,101499.72
2023-03-01T14:13:19.891Z,101500.00
2023-03-01T14:16:01.869Z,101488.34
2023-03-01T14:18:44.665Z,101484.97
2023-03-01T14:21:15.709Z,101482.22
2023-03-01T14:23:43.155Z,101469.44
2023-03-01T14:26:13.005Z,101470.53
2023-03-01T14:28:40.833Z,101477.75
2023-03-01T14:31:36.248Z,101458.88
2023-03-01T14:34:06.198Z,101471.03
2023-03-01T14:36:35.301Z,101472.66
2023-03-01T14:39:06.063Z,101473.50
2023-03-01T14:41:36.838Z,101464.91
2023-03-01T14:44:14.591Z,101460.41
2023-03-01T14:46:44.589Z,101446.38
2023-03-01T14:49:16.304Z,101447.66
2023-03-01T14:51:50.957Z,101444.38
2023-03-01T14:54:43.118Z,101444.09
2023-03-01T14:57:22.848Z,101437.28
2023-03-01T14:59:51.805Z,101438.66
2023-03-01T15:02:21.776Z,101439.41
2023-03-01T15:04:52.569Z,101439.03
2023-03-01T15:07:20.367Z,101436.53
2023-03-01T15:09:47.789Z,101438.22
2023-03-01T15:12:29.682Z,101433.94
2023-03-01T15:15:04.336Z,101426.28
2023-03-01T15:17:39.226Z,101426.00
2023-03-01T15:20:17.736Z,101430.13
2023-03-01T15:22:49.562Z,101428.41
2023-03-01T15:25:22.340Z,101425.09
2023-03-01T15:27:51.502Z,101427.19
2023-03-01T15:30:38.520Z,101416.94
2023-03-01T15:33:30.553Z,101420.22
2023-03-01T15:35:59.674Z,101413.84
2023-03-01T15:38:29.153Z,101418.28
2023-03-01T15:40:56.895Z,101409.13
2023-03-01T15:43:47.433Z,101404.72
2023-03-01T15:46:26.013Z,101393.09
2023-03-01T15:48:57.435Z,101383.66
2023-03-01T15:51:36.843Z,101385.75
2023-03-01T15:54:06.017Z,101374.03
2023-03-01T15:56:33.435Z,101380.94
2023-03-01T15:59:02.367Z,101369.56
2023-03-01T16:01:30.128Z,101365.03
2023-03-01T16:03:58.454Z,101373.06
2023-03-01T16:06:25.454Z,101374.50
2023-03-01T16:08:52.155Z,101368.84
2023-03-01T16:11:20.846Z,101367.91
2023-03-01T16:13:47.833Z,101365.72
2023-03-01T16:16:17.459Z,101372.47
2023-03-01T16:18:47.020Z,101379.38
2023-03-01T16:21:16.563Z,101383.66
2023-03-01T16:23:43.979Z,101382.59
2023-03-01T16:26:11.473Z,101388.13
2023-03-01T16:28:38.344Z,101374.66
2023-03-01T16:31:05.562Z,101374.59
2023-03-01T16:33:34.188Z,101383.78
2023-03-01T16:36:07.380Z,101378.84
2023-03-01T16:38:34.431Z,101380.50
2023-03-01T16:41:01.502Z,101376.38
2023-03-01T16:43:28.358Z,101379.84
2023-03-01T16:45:55.168Z,101372.84
2023-03-01T16:48:21.901Z,101370.69
2023-03-01T16:50:57.993Z,101374.56
2023-03-01T16:53:24.623Z,101368.19
2023-03-01T16:56:11.943Z,101372.63
2023-03-01T16:58:40.925Z,101382.28
2023-03-01T17:01:19.479Z,101365.66
2023-03-01T17:03:48.565Z,101361.16
2023-03-01T17:06:18.673Z,101364.63
2023-03-01T17:08:45.410Z,101368.44
2023-03-01T17:11:15.327Z,101368.38
2023-03-01T17:13:42.543Z,101362.59
2023-03-01T17:16:12.402Z,101373.38
2023-03-01T17:18:39.334Z,101358.53
2023-03-01T17:21:07.884Z,101360.56
2023-03-01T17:23:35.579Z,101366.63
2023-03-01T17:26:02.914Z,101370.84
2023-03-01T17:28:32.618Z,101373.94
2023-03-01T17:31:01.090Z,101388.81
2023-03-01T17:33:31.042Z,101394.88
2023-03-01T17:35:58.658Z,101391.00
2023-03-01T17:38:25.727Z,101404.34
2023-03-01T17:40:52.652Z,101397.38
2023-03-01T17:43:20.145Z,101404.78
2023-03-01T17:45:52.328Z,101411.50
2023-03-01T17:48:19.311Z,101409.88
2023-03-01T17:50:46.359Z,101404.84
2023-03-01T17:53:13.902Z,101408.75
2023-03-01T17:55:42.382Z,101399.31
2023-03-01T17:58:11.895Z,101411.50
2023-03-01T18:00:39.122Z,101403.75
2023-03-01T18:03:06.599Z,101407.63
2023-03-01T18:05:34.979Z,101404.34
2023-03-01T18:08:01.867Z,101405.53
2023-03-01T18:10:28.770Z,101402.09
2023-03-01T18:12:55.505Z,101403.19
2023-03-01T18:15:22.211Z,101407.13
2023-03-01T18:17:49.656Z,101405.97
2023-03-01T18:20:17.928Z,101399.38
2023-03-01T18:22:44.551Z,101391.66
2023-03-01T18:25:11.372Z,101393.25
2023-03-01T18:27:38.560Z,101387.97
2023-03-01T18:30:07.709Z,101393.34
2023-03-01T18:32:34.540Z,101383.88
2023-03-01T18:35:01.340Z,101382.75
2023-03-01T18:37:28.087Z,101376.06
2023-03-01T18:39:54.800Z,101378.63
2023-03-01T18:42:22.153Z,101382.75
2023-03-01T18:44:49.402Z,101379.47
2023-03-01T18:47:17.131Z,101391.16
2023-03-01T18:49:44.409Z,101374.53
2023-03-01T18:52:11.920Z,101374.72
2023-03-01T18:54:38.634Z,101383.88
2023-03-01T18:57:05.430Z,101383.34
2023-03-01T18:59:32.466Z,101383.59
2023-03-01T19:01:59.481Z,101386.41
2023-03-01T19:04:27.313Z,101387.78
2023-03-01T19:06:54.111Z,101387.25
2023-03-01T19:09:21.056Z,101382.28
2023-03-01T19:11:48.063Z,101378.63
2023-03-01T19:14:14.867Z,101376.69
2023-03-01T19:16:41.634Z,101376.97
2023-03-01T19:19:10.167Z,101382.16
2023-03-01T19:21:37.536Z,101387.69
2023-03-01T19:24:04.559Z,101377.44
2023-03-01T19:26:32.914Z,101382.16
2023-03-01T19:29:00.738Z,101378.84
2023-03-01T19:31:29.629Z,101376.63
2023-03-01T19:34:15.662Z,101373.00
2023-03-01T19:36:43.738Z,101371.66
2023-03-01T19:39:13.754Z,101371.06
2023-03-01T19:41:41.166Z,101372.31
2023-03-01T19:44:08.767Z,101371.31
2023-03-01T19:46:36.406Z,101369.94
2023-03-01T19:49:03.766Z,101372.69
2023-03-01T19:51:33.452Z,101370.00
2023-03-01T19:54:00.735Z,101372.19
2023-03-01T19:56:27.709Z,101376.53
2023-03-01T19:59:00.473Z,101370.91
2023-03-01T20:01:29.750Z,101367.38
2023-03-01T20:03:56.560Z,101370.47
2023-03-01T20:06:23.357Z,101369.94
2023-03-01T20:08:50.045Z,101365.53
2023-03-01T20:11:18.367Z,101359.97
2023-03-01T20:13:45.737Z,101366.28
2023-03-01T20:16:16.829Z,101366.34
2023-03-01T20:18:43.618Z,101367.97
2023-03-01T20:21:21.714Z,101366.34
2023-03-01T20:23:50.032Z,101363.88
2023-03-01T20:26:19.625Z,101365.81
2023-03-01T20:28:48.580Z,101370.91
2023-03-01T20:31:17.048Z,101374.03
2023-03-01T20:33:44.598Z,101366.03
2023-03-01T20:36:12.106Z,101356.47
2023-03-01T20:38:39.418Z,101361.28
2023-03-01T20:41:09.507Z,101348.56
2023-03-01T20:43:37.143Z,101355.22
2023-03-01T20:46:08.318Z,101350.78
2023-03-01T20:48:37.912Z,101354.13
2023-03-01T20:51:09.581Z,101348.72
2023-03-01T20:53:36.504Z,101361.25
2023-03-01T20:56:04.789Z,101359.56
2023-03-01T20:58:35.757Z,101360.31
2023-03-01T21:01:04.269Z,101359.03
2023-03-01T21:03:31.791Z,101360.31
2023-03-01T21:06:02.139Z,101357.88
2023-03-01T21:08:30.050Z,101347.66
2023-03-01T21:10:57.846Z,101359.66
2023-03-01T21:13:26.347Z,101349.72
2023-03-01T21:16:01.220Z,101349.47
2023-03-01T21:18:30.047Z,101340.72
2023-03-01T21:21:01.260Z,101333.00
2023-03-01T21:23:32.591Z,101340.53
2023-03-01T21:26:08.637Z,101349.69
2023-03-01T21:28:37.222Z,101335.34
2023-03-01T21:31:15.875Z,101342.03
2023-03-01T21:33:48.488Z,101343.22
2023-03-01T21:36:16.584Z,101337.47
2023-03-01T21:38:46.441Z,101341.34
2023-03-01T21:41:17.731Z,101348.88
2023-03-01T21:43:46.268Z,101353.31
2023-03-01T21:46:15.549Z,101351.97
2023-03-01T21:48:45.129Z,101351.72
2023-03-01T21:51:15.040Z,101347.06
2023-03-01T21:53:42.615Z,101358.72
2023-03-01T21:56:10.621Z,101352.41
2023-03-01T21:58:37.358Z,101344.69
2023-03-01T22:01:10.885Z,101338.06
2023-03-01T22:03:46.655Z,101345.84
2023-03-01T22:06:20.391Z,101350.28
2023-03-01T22:08:59.004Z,101342.03
2023-03-01T22:11:28.354Z,101338.75
2023-03-01T22:13:56.573Z,101344.84
2023-03-01T22:16:29.687Z,101341.56
2023-03-01T22:18:57.800Z,101341.84
2023-03-01T22:21:25.737Z,101342.72
2023-03-01T22:23:54.234Z,101352.69
2023-03-01T22:26:41.648Z,101344.44
2023-03-01T22:29:14.943Z,101354.97
2023-03-01T22:31:42.868Z,101351.63
2023-03-01T22:34:10.336Z,101350.00
2023-03-01T22:36:39.451Z,101355.81
2023-03-01T22:39:06.595Z,101355.53
2023-03-01T22:41:37.519Z,101350.31
2023-03-01T22:44:04.523Z,101347.84
2023-03-01T22:46:32.069Z,101349.53
2023-03-01T22:48:59.016Z,101343.16
2023-03-01T22:51:29.571Z,101344.56
2023-03-01T22:53:57.106Z,101346.50
2023-03-01T22:56:30.787Z,101339.63
2023-03-01T22:58:59.277Z,101344.03
2023-03-01T23:01:27.354Z,101344.03
2023-03-01T23:03:54.170Z,101350.69
2023-03-01T23:06:22.497Z,101344.03
2023-03-01T23:08:54.904Z,101341.84
2023-03-01T23:11:22.801Z,101346.81
2023-03-01T23:13:50.379Z,101352.91
2023-03-01T23:16:17.490Z,101345.75
2023-03-01T23:18:45.106Z,101347.97
2023-03-01T23:21:17.471Z,101348.53
2023-03-01T23:23:47.049Z,101358.22
2023-03-01T23:26:15.013Z,101355.19
2023-03-01T23:28:42.253Z,101362.94
2023-03-01T23:31:12.157Z,101355.78
2023-03-01T23:33:39.703Z,101356.34
2023-03-01T23:36:26.237Z,101349.72
2023-03-01T23:38:59.851Z,101346.97
2023-03-01T23:41:30.002Z,101347.28
2023-03-01T23:43:58.874Z,101342.31
2023-03-01T23:46:28.520Z,101343.09
2023-03-01T23:48:56.038Z,101340.91
2023-03-01T23:51:24.390Z,101347.56
2023-03-01T23:53:55.625Z,101349.78
2023-03-01T23:56:28.382Z,101350.34
2023-03-01T23:58:57.574Z,101348.69
